Time;durP1;ratioP1;P1;durP2;ratioP2;P2;SDS_P1;SDS_P2;PMS_P1;PMS_P2;Temp;Humidity;BMP_temperature;BMP_pressure;BME280_temperature;BME280_humidity;BME280_pressure;Samples;Min_cycle;Max_cycle;Signal;HPM_P1;HPM_P2
2023/06/14 00:02:00;;;;;;;19.00;9.70;;;;;;;19.29;41.53;101291.22;5051725;28;20032;-56
2023/06/14 00:04:26;;;;;;;18.23;9.55;;;;;;;19.27;41.79;101293.59;5065286;28;20051;-56
2023/06/14 00:06:52;;;;;;;20.48;9.50;;;;;;;19.26;41.51;101289.94;5071621;28;20116;-57
2023/06/14 00:09:17;;;;;;;19.83;9.98;;;;;;;19.20;42.09;101296.16;5071387;28;20048;-56
2023/06/14 00:11:43;;;;;;;19.73;9.90;;;;;;;19.15;41.88;101291.59;5071411;28;20401;-58
2023/06/14 00:14:09;;;;;;;20.55;9.60;;;;;;;19.08;41.69;101295.00;5053043;28;20029;-58
2023/06/14 00:16:35;;;;;;;19.55;9.32;;;;;;;19.02;41.79;101296.44;5051546;28;20396;-57
2023/06/14 00:19:04;;;;;;;19.38;9.88;;;;;;;18.98;41.47;101295.53;5050034;28;20431;-57
2023/06/14 00:21:30;;;;;;;18.73;9.63;;;;;;;18.88;41.39;101299.56;5051380;28;20412;-57
2023/06/14 00:23:57;;;;;;;19.45;10.32;;;;;;;18.82;41.24;101307.41;5051432;28;20040;-57
2023/06/14 00:26:22;;;;;;;20.20;9.10;;;;;;;18.79;40.77;101299.72;5051456;28;20469;-56
2023/06/14 00:28:47;;;;;;;18.85;9.52;;;;;;;18.76;40.79;101305.19;5051470;28;20108;-57
2023/06/14 00:31:13;;;;;;;18.48;8.90;;;;;;;18.69;40.75;101297.38;5051460;28;20029;-57
2023/06/14 00:33:38;;;;;;;20.08;8.95;;;;;;;18.65;40.75;101302.03;5051246;28;20025;-57
2023/06/14 00:36:03;;;;;;;18.85;9.30;;;;;;;18.59;40.83;101300.66;5051389;28;20029;-56
2023/06/14 00:38:29;;;;;;;19.42;8.65;;;;;;;18.57;40.76;101308.59;5051360;28;20465;-56
2023/06/14 00:40:54;;;;;;;18.35;8.93;;;;;;;18.50;40.93;101307.19;5051326;28;20155;-57
2023/06/14 00:43:19;;;;;;;17.92;8.52;;;;;;;18.51;40.75;101308.00;5051491;28;20082;-57
2023/06/14 00:45:45;;;;;;;19.80;8.77;;;;;;;18.49;40.77;101308.34;5051087;28;20349;-57
2023/06/14 00:48:11;;;;;;;18.25;8.57;;;;;;;18.46;40.39;101308.25;5049423;28;20033;-57
2023/06/14 00:50:38;;;;;;;17.63;8.63;;;;;;;18.42;40.70;101308.09;5051031;28;20032;-57
2023/06/14 00:53:04;;;;;;;19.77;8.52;;;;;;;18.40;40.79;101311.25;5051447;28;20480;-57
2023/06/14 00:55:29;;;;;;;17.85;8.50;;;;;;;18.34;40.77;101301.47;5051443;28;20029;-57
2023/06/14 00:57:55;;;;;;;17.90;8.50;;;;;;;18.27;40.85;101298.41;5051197;28;20031;-56
2023/06/14 01:00:21;;;;;;;17.70;8.38;;;;;;;18.21;40.81;101317.44;5053323;28;20033;-56
2023/06/14 01:02:47;;;;;;;18.20;8.90;;;;;;;18.15;41.34;101312.38;5054674;28;20072;-57
2023/06/14 01:05:14;;;;;;;17.60;8.80;;;;;;;18.08;41.30;101312.94;5054721;28;20098;-57
2023/06/14 01:07:51;;;;;;;20.00;8.93;;;;;;;18.09;41.25;101312.59;5054675;28;20103;-57
2023/06/14 01:10:32;;;;;;;17.88;8.80;;;;;;;18.05;41.35;101310.84;5054528;28;20392;-57
2023/06/14 01:13:05;;;;;;;18.75;8.65;;;;;;;18.03;41.30;101313.19;5054336;28;20033;-57
2023/06/14 01:15:31;;;;;;;19.10;8.65;;;;;;;17.99;41.57;101315.03;5054380;28;20079;-57
2023/06/14 01:18:02;;;;;;;18.70;8.38;;;;;;;18.01;41.57;101321.91;5054478;28;20037;-56
2023/06/14 01:20:32;;;;;;;18.13;8.00;;;;;;;17.97;41.79;101317.34;5065573;28;20036;-58
2023/06/14 01:22:58;;;;;;;16.98;8.43;;;;;;;17.92;41.73;101312.75;5074208;28;20485;-57
2023/06/14 01:25:25;;;;;;;18.92;7.97;;;;;;;17.88;41.75;101314.63;5074214;28;20131;-58
2023/06/14 01:27:53;;;;;;;17.33;7.75;;;;;;;17.86;41.91;101309.34;5074338;28;20028;-57
2023/06/14 01:30:21;;;;;;;17.52;8.00;;;;;;;17.87;41.75;101315.78;5074037;28;20025;-57
2023/06/14 01:32:47;;;;;;;16.90;7.60;;;;;;;17.84;41.82;101320.09;5072808;28;20233;-56
2023/06/14 01:35:12;;;;;;;18.77;8.23;;;;;;;17.82;42.09;101316.00;5072171;28;20033;-56
2023/06/14 01:37:40;;;;;;;16.55;8.20;;;;;;;17.77;42.39;101319.81;5054122;28;20050;-57
2023/06/14 01:40:07;;;;;;;17.48;8.27;;;;;;;17.77;42.27;101323.44;5054091;28;20104;-57
2023/06/14 01:42:37;;;;;;;18.10;8.20;;;;;;;17.72;42.48;101317.25;5052372;28;20072;-55
2023/06/14 01:45:05;;;;;;;18.80;8.60;;;;;;;17.67;42.70;101317.44;5054020;28;20025;-55
2023/06/14 01:47:31;;;;;;;18.45;8.27;;;;;;;17.60;42.99;101312.44;5053934;28;20517;-56
2023/06/14 01:49:57;;;;;;;16.45;8.20;;;;;;;17.56;43.02;101323.50;5053832;28;20427;-57
2023/06/14 01:52:24;;;;;;;17.92;8.18;;;;;;;17.54;43.52;101320.22;5053766;28;20032;-57
2023/06/14 01:54:49;;;;;;;17.17;8.00;;;;;;;17.51;43.42;101318.09;5053625;28;20425;-56
2023/06/14 01:57:15;;;;;;;17.65;8.00;;;;;;;17.49;43.63;101314.00;5053669;28;20036;-56
2023/06/14 01:59:40;;;;;;;16.75;8.20;;;;;;;17.49;43.82;101314.81;5053790;28;20059;-56
2023/06/14 02:02:06;;;;;;;18.38;8.18;;;;;;;17.45;43.61;101322.25;5054146;28;20035;-56
2023/06/14 02:04:31;;;;;;;17.77;8.80;;;;;;;17.41;43.86;101315.69;5052352;28;20025;-56
2023/06/14 02:06:56;;;;;;;17.02;8.43;;;;;;;17.33;44.16;101311.84;5053490;28;20424;-55
2023/06/14 02:09:21;;;;;;;18.77;8.50;;;;;;;17.31;44.21;101309.34;5053499;28;20516;-57
2023/06/14 02:11:47;;;;;;;19.00;8.30;;;;;;;17.26;44.25;101311.53;5053263;28;20027;-56
2023/06/14 02:14:12;;;;;;;18.42;8.55;;;;;;;17.21;44.68;101314.56;5053525;28;20477;-56
2023/06/14 02:16:38;;;;;;;16.42;7.57;;;;;;;17.21;44.51;101317.34;5053588;28;20025;-57
2023/06/14 02:19:04;;;;;;;19.17;8.63;;;;;;;17.18;44.76;101313.25;5053330;28;20112;-56
2023/06/14 02:21:30;;;;;;;16.38;7.88;;;;;;;17.15;44.74;101308.34;5052969;28;20049;-56
2023/06/14 02:23:55;;;;;;;17.23;8.82;;;;;;;17.12;44.95;101306.22;5053131;28;20021;-56
2023/06/14 02:26:22;;;;;;;16.90;8.32;;;;;;;17.07;45.28;101312.00;5053028;28;20063;-55
2023/06/14 02:28:48;;;;;;;18.80;8.52;;;;;;;17.01;45.46;101308.59;5053145;28;20044;-56
2023/06/14 02:31:13;;;;;;;17.90;8.27;;;;;;;17.03;45.51;101320.25;5051717;28;20096;-56
2023/06/14 02:33:38;;;;;;;18.58;8.40;;;;;;;16.97;45.71;101316.84;5053042;28;20036;-56
2023/06/14 02:36:04;;;;;;;17.50;8.18;;;;;;;16.94;45.88;101314.72;5052820;28;20045;-56
2023/06/14 02:38:29;;;;;;;18.55;8.02;;;;;;;16.92;45.76;101319.78;5052793;28;20025;-57
2023/06/14 02:40:54;;;;;;;17.73;8.60;;;;;;;16.90;46.10;101319.34;5052871;28;20115;-55
2023/06/14 02:43:20;;;;;;;18.17;8.45;;;;;;;16.88;45.96;101326.41;5052899;28;20402;-56
2023/06/14 02:45:45;;;;;;;19.52;8.23;;;;;;;16.82;46.31;101325.75;5052911;28;20025;-57
2023/06/14 02:48:11;;;;;;;17.67;8.07;;;;;;;16.78;46.18;101334.00;5052796;28;20017;-56
2023/06/14 02:50:36;;;;;;;17.95;8.20;;;;;;;16.73;46.20;101323.03;5052601;28;20032;-56
2023/06/14 02:53:02;;;;;;;18.35;8.32;;;;;;;16.75;46.41;101326.31;5052592;28;20040;-56
2023/06/14 02:55:28;;;;;;;17.73;7.97;;;;;;;16.75;46.51;101329.09;5053096;28;20389;-55
2023/06/14 02:57:53;;;;;;;18.48;8.25;;;;;;;16.71;46.89;101327.31;5052523;28;20479;-55
2023/06/14 03:00:19;;;;;;;18.20;8.60;;;;;;;16.71;46.73;101321.75;5052780;28;20036;-55
2023/06/14 03:02:45;;;;;;;17.98;8.48;;;;;;;16.66;46.78;101326.34;5052268;28;20552;-55
2023/06/14 03:05:10;;;;;;;18.00;8.88;;;;;;;16.66;46.92;101331.13;5052396;28;20512;-56
2023/06/14 03:07:40;;;;;;;17.85;8.35;;;;;;;16.65;47.00;101329.50;5052270;28;20140;-55
2023/06/14 03:10:09;;;;;;;18.95;7.95;;;;;;;16.59;47.50;101331.66;5052297;28;20497;-57
2023/06/14 03:12:36;;;;;;;17.75;8.27;;;;;;;16.53;48.14;101333.81;5052496;28;20024;-55
2023/06/14 03:15:02;;;;;;;20.63;8.35;;;;;;;16.49;48.04;101334.81;5052410;28;20079;-56
2023/06/14 03:17:29;;;;;;;17.23;8.13;;;;;;;16.48;48.15;101333.16;5051928;28;20025;-56
2023/06/14 03:19:55;;;;;;;17.98;8.25;;;;;;;16.46;47.85;101336.31;5051964;28;20036;-56
2023/06/14 03:22:21;;;;;;;17.38;7.88;;;;;;;16.44;47.36;101344.19;5050986;28;20749;-56
2023/06/14 03:24:47;;;;;;;18.15;7.90;;;;;;;16.42;48.02;101348.47;5052062;28;20064;-56
2023/06/14 03:27:12;;;;;;;16.38;7.93;;;;;;;16.41;48.43;101353.22;5052070;28;20048;-56
2023/06/14 03:29:37;;;;;;;18.73;8.45;;;;;;;16.44;48.12;101352.56;5052067;28;20029;-56
2023/06/14 03:32:03;;;;;;;19.30;9.18;;;;;;;16.42;48.10;101343.69;5051871;28;20389;-56
2023/06/14 03:34:28;;;;;;;18.30;8.45;;;;;;;16.37;48.45;101350.28;5052032;28;20392;-57
2023/06/14 03:36:54;;;;;;;18.83;8.70;;;;;;;16.35;48.76;101357.38;5052080;28;20099;-56
2023/06/14 03:39:19;;;;;;;20.08;9.15;;;;;;;16.35;48.57;101351.78;5052105;28;20036;-54
2023/06/14 03:41:45;;;;;;;18.05;8.25;;;;;;;16.36;48.83;101359.00;5051968;28;20025;-55
2023/06/14 03:44:10;;;;;;;19.35;8.00;;;;;;;16.36;49.19;101351.44;5051670;28;20524;-56
2023/06/14 03:46:35;;;;;;;17.88;8.73;;;;;;;16.55;48.26;101355.00;5051877;28;20032;-55
2023/06/14 03:49:02;;;;;;;17.20;8.45;;;;;;;16.95;47.82;101360.28;5051902;28;20033;-56
2023/06/14 03:51:28;;;;;;;19.58;8.60;;;;;;;17.33;46.94;101358.53;5051851;28;20147;-56
2023/06/14 03:53:54;;;;;;;18.10;8.48;;;;;;;17.67;46.34;101357.44;5051984;28;20492;-56
2023/06/14 03:56:19;;;;;;;19.45;7.97;;;;;;;17.66;46.10;101360.59;5051924;28;20047;-56
2023/06/14 03:58:45;;;;;;;21.23;8.40;;;;;;;17.66;45.94;101361.41;5051605;28;20465;-56
2023/06/14 04:01:11;;;;;;;19.83;9.25;;;;;;;17.45;46.40;101364.22;5051779;28;20026;-55
2023/06/14 04:03:37;;;;;;;19.10;8.85;;;;;;;17.21;47.12;101368.47;5051707;28;20028;-55
2023/06/14 04:06:04;;;;;;;19.52;9.02;;;;;;;17.06;47.54;101360.69;5051826;28;20346;-55
2023/06/14 04:08:29;;;;;;;17.60;8.50;;;;;;;17.00;47.58;101368.44;5051834;28;20100;-55
2023/06/14 04:10:54;;;;;;;17.73;8.68;;;;;;;16.92;48.31;101364.50;5051704;28;20049;-55
2023/06/14 04:13:20;;;;;;;19.27;8.60;;;;;;;16.88;48.33;101362.72;5051630;28;20075;-56
2023/06/14 04:15:45;;;;;;;19.48;8.52;;;;;;;16.82;48.85;101364.88;5051794;28;20025;-55
2023/06/14 04:18:11;;;;;;;19.52;8.55;;;;;;;16.77;49.14;101374.28;5051533;28;20511;-55
2023/06/14 04:20:36;;;;;;;19.73;8.77;;;;;;;16.72;49.01;101370.88;5051620;28;20097;-55
2023/06/14 04:23:12;;;;;;;20.98;8.63;;;;;;;16.64;49.16;101366.94;5051954;28;20123;-54
2023/06/14 04:25:38;;;;;;;18.45;8.27;;;;;;;16.62;49.46;101378.47;5051136;28;20473;-56
2023/06/14 04:28:03;;;;;;;19.70;8.43;;;;;;;16.67;49.29;101378.28;5051640;28;20079;-55
2023/06/14 04:30:31;;;;;;;16.88;8.02;;;;;;;16.72;49.17;101376.47;5051343;28;20463;-56
2023/06/14 04:32:57;;;;;;;17.73;7.90;;;;;;;16.75;49.05;101372.97;5051776;28;20124;-55
2023/06/14 04:35:27;;;;;;;21.70;9.80;;;;;;;16.79;49.06;101369.19;5055302;28;20109;-54
2023/06/14 04:37:53;;;;;;;18.40;8.25;;;;;;;16.88;49.12;101383.13;5055176;28;20047;-54
2023/06/14 04:40:18;;;;;;;19.58;8.45;;;;;;;16.93;49.02;101385.75;5055472;28;20430;-55
2023/06/14 04:42:44;;;;;;;20.90;8.43;;;;;;;16.96;49.03;101387.88;5055179;28;20469;-55
2023/06/14 04:45:10;;;;;;;19.33;8.50;;;;;;;16.98;49.15;101395.91;5055067;28;20048;-55
2023/06/14 04:47:37;;;;;;;18.05;8.13;;;;;;;17.02;49.31;101387.66;5054872;28;20377;-56
2023/06/14 04:50:03;;;;;;;19.80;8.15;;;;;;;17.11;49.08;101383.69;5055129;28;20029;-55
2023/06/14 04:52:30;;;;;;;21.38;8.77;;;;;;;17.18;48.74;101390.69;5054922;28;20035;-56
2023/06/14 04:54:55;;;;;;;17.95;7.95;;;;;;;17.22;48.75;101398.06;5055097;28;20038;-55
2023/06/14 04:57:22;;;;;;;20.95;8.13;;;;;;;17.29;48.57;101395.56;5054680;28;20021;-55
2023/06/14 04:59:47;;;;;;;18.80;7.82;;;;;;;17.29;48.49;101397.53;5054798;28;20037;-55
2023/06/14 05:02:13;;;;;;;17.77;8.00;;;;;;;17.38;48.48;101408.69;5054604;28;20520;-55
2023/06/14 05:04:39;;;;;;;18.40;8.00;;;;;;;17.39;48.30;101401.91;5054446;28;20029;-55
2023/06/14 05:07:07;;;;;;;18.15;7.65;;;;;;;17.40;48.91;101403.56;5055036;28;20166;-54
2023/06/14 05:09:33;;;;;;;17.75;7.90;;;;;;;17.48;48.75;101399.06;5054513;28;20037;-55
2023/06/14 05:12:00;;;;;;;17.88;8.07;;;;;;;17.60;47.98;101402.75;5054412;28;20099;-55
2023/06/14 05:14:25;;;;;;;19.30;8.40;;;;;;;17.70;48.35;101406.31;5054418;28;20055;-56
2023/06/14 05:16:51;;;;;;;20.00;8.27;;;;;;;17.71;48.22;101408.75;5053915;28;20072;-55
2023/06/14 05:19:17;;;;;;;18.40;8.20;;;;;;;17.70;48.12;101403.50;5053609;28;20079;-56
2023/06/14 05:21:43;;;;;;;19.05;8.50;;;;;;;17.69;48.32;101401.88;5053772;28;20057;-55
2023/06/14 05:24:09;;;;;;;20.25;8.30;;;;;;;17.68;48.25;101412.25;5053986;28;20029;-57
2023/06/14 05:26:35;;;;;;;19.75;8.02;;;;;;;17.76;48.52;101414.16;5054077;28;20045;-56
2023/06/14 05:29:01;;;;;;;20.27;8.50;;;;;;;17.79;48.10;101415.44;5054067;28;20048;-57
2023/06/14 05:31:26;;;;;;;16.88;8.13;;;;;;;17.88;48.14;101413.38;5054081;28;20029;-57
2023/06/14 05:33:53;;;;;;;19.05;8.82;;;;;;;18.03;48.15;101420.38;5054473;28;20033;-56
2023/06/14 05:36:19;;;;;;;18.70;8.73;;;;;;;18.04;47.92;101410.81;5054266;28;20025;-55
2023/06/14 05:38:45;;;;;;;19.77;9.00;;;;;;;18.10;47.87;101419.81;5053930;28;20017;-56
2023/06/14 05:41:10;;;;;;;20.63;8.82;;;;;;;18.08;47.71;101417.38;5054085;28;20472;-57
2023/06/14 05:43:36;;;;;;;20.30;8.68;;;;;;;18.16;48.01;101412.84;5053977;28;20093;-55
2023/06/14 05:46:01;;;;;;;20.67;9.13;;;;;;;18.28;47.71;101414.84;5053128;28;20362;-56
2023/06/14 05:48:26;;;;;;;18.15;8.93;;;;;;;18.26;47.81;101419.16;5054027;28;20029;-57
2023/06/14 05:50:52;;;;;;;19.73;9.13;;;;;;;18.26;47.81;101421.97;5053904;28;20081;-56
2023/06/14 05:53:17;;;;;;;17.75;8.93;;;;;;;18.33;48.37;101437.06;5045761;28;20076;-56
2023/06/14 05:55:43;;;;;;;19.00;9.05;;;;;;;18.35;47.54;101431.94;5033793;28;20044;-55
2023/06/14 05:58:08;;;;;;;20.40;9.25;;;;;;;18.42;48.07;101436.94;5042263;28;20488;-56
2023/06/14 06:00:33;;;;;;;19.98;8.98;;;;;;;18.47;47.65;101438.72;5053400;28;20041;-56
2023/06/14 06:02:59;;;;;;;20.13;9.07;;;;;;;18.47;47.60;101433.09;5053320;28;20017;-56
2023/06/14 06:05:24;;;;;;;20.30;9.18;;;;;;;18.57;47.24;101441.06;5053589;28;20036;-56
2023/06/14 06:07:49;;;;;;;21.33;9.25;;;;;;;18.75;47.29;101441.72;5053465;28;20029;-56
2023/06/14 06:10:15;;;;;;;18.52;8.50;;;;;;;18.83;46.82;101442.78;5053685;28;20389;-57
2023/06/14 06:12:41;;;;;;;20.65;8.85;;;;;;;18.94;46.90;101443.97;5053335;28;20044;-56
2023/06/14 06:15:07;;;;;;;19.83;8.55;;;;;;;18.97;46.36;101439.66;5053075;28;20068;-56
2023/06/14 06:17:33;;;;;;;22.65;9.77;;;;;;;18.97;46.37;101446.09;5053319;28;20060;-55
2023/06/14 06:19:58;;;;;;;17.45;8.32;;;;;;;19.01;46.27;101446.19;5053390;28;20040;-56
2023/06/14 06:22:23;;;;;;;22.35;8.93;;;;;;;19.10;46.28;101443.28;5053104;28;20043;-54
2023/06/14 06:24:49;;;;;;;17.73;7.75;;;;;;;19.23;46.67;101444.09;5053186;28;20033;-56
2023/06/14 06:27:14;;;;;;;18.70;8.90;;;;;;;19.35;46.28;101446.91;5053150;28;20477;-56
2023/06/14 06:29:42;;;;;;;20.10;9.00;;;;;;;19.41;46.16;101453.09;5053081;28;20040;-59
2023/06/14 06:32:08;;;;;;;19.02;8.68;;;;;;;19.54;46.08;101454.72;5053228;28;20056;-58
2023/06/14 06:34:33;;;;;;;21.17;8.63;;;;;;;19.61;45.53;101449.31;5053099;28;20025;-57
2023/06/14 06:36:58;;;;;;;18.80;9.95;;;;;;;19.58;45.20;101457.63;5053000;28;20029;-57
2023/06/14 06:39:23;;;;;;;19.15;9.25;;;;;;;19.62;45.22;101462.19;5052908;28;20035;-58
2023/06/14 06:41:49;;;;;;;16.92;8.60;;;;;;;19.56;44.81;101455.19;5050211;28;20037;-57
2023/06/14 06:44:14;;;;;;;16.73;8.38;;;;;;;19.68;45.00;101471.16;5051575;28;20060;-57
2023/06/14 06:46:40;;;;;;;18.65;8.25;;;;;;;19.67;45.37;101477.16;5051854;28;20105;-58
2023/06/14 06:49:11;;;;;;;18.83;8.45;;;;;;;19.69;44.72;101470.00;5050453;28;20033;-57
2023/06/14 06:51:37;;;;;;;18.73;8.70;;;;;;;19.63;44.79;101471.44;5051624;28;20025;-57
2023/06/14 06:54:02;;;;;;;18.90;8.88;;;;;;;19.69;44.60;101475.63;5051120;28;20104;-56
2023/06/14 06:56:28;;;;;;;19.67;9.05;;;;;;;19.79;44.64;101477.09;5051326;28;20099;-57
2023/06/14 06:58:53;;;;;;;18.05;8.48;;;;;;;19.82;44.63;101476.41;5050921;28;20112;-57
2023/06/14 07:01:19;;;;;;;19.20;8.45;;;;;;;19.97;45.09;101476.88;5050993;28;20021;-57
2023/06/14 07:03:45;;;;;;;18.48;8.77;;;;;;;20.10;44.92;101478.47;5049135;28;20091;-57
2023/06/14 07:06:10;;;;;;;17.10;8.35;;;;;;;20.17;43.89;101477.84;5042782;28;20473;-58
2023/06/14 07:08:36;;;;;;;18.63;8.50;;;;;;;20.09;44.24;101483.28;5048120;28;20732;-57
2023/06/14 07:11:02;;;;;;;20.27;8.23;;;;;;;20.18;43.78;101494.34;5042603;28;20083;-57
2023/06/14 07:13:27;;;;;;;18.40;8.27;;;;;;;20.30;43.76;101492.66;5035867;28;20187;-58
2023/06/14 07:15:55;;;;;;;17.00;8.60;;;;;;;20.33;43.45;101489.16;5041560;28;20116;-59
2023/06/14 07:18:22;;;;;;;18.38;8.93;;;;;;;20.51;43.64;101492.44;5042382;28;20036;-58
2023/06/14 07:20:47;;;;;;;19.13;8.98;;;;;;;20.64;43.21;101491.22;5031651;28;20108;-59
2023/06/14 07:23:12;;;;;;;17.75;8.20;;;;;;;20.72;42.85;101500.69;5035803;28;20216;-58
2023/06/14 07:25:39;;;;;;;18.00;8.10;;;;;;;20.78;42.68;101495.63;5036130;28;20053;-58
2023/06/14 07:28:05;;;;;;;16.42;8.10;;;;;;;20.84;42.16;101502.63;5037199;28;20040;-58
2023/06/14 07:30:31;;;;;;;20.75;9.20;;;;;;;20.87;41.81;101513.16;5038909;28;20039;-58
2023/06/14 07:32:56;;;;;;;17.98;8.45;;;;;;;20.96;42.42;101510.16;5051204;28;20025;-59
2023/06/14 07:35:21;;;;;;;17.85;8.13;;;;;;;21.02;41.44;101500.25;5050826;28;20673;-59
2023/06/14 07:37:48;;;;;;;18.92;8.65;;;;;;;21.16;41.75;101506.25;5050947;28;20029;-59
2023/06/14 07:40:13;;;;;;;19.25;8.70;;;;;;;21.31;41.74;101506.59;5050814;28;20033;-59
2023/06/14 07:42:39;;;;;;;15.43;7.80;;;;;;;21.51;41.02;101510.31;5050921;28;20107;-59
2023/06/14 07:45:05;;;;;;;18.42;8.23;;;;;;;21.63;39.64;101512.22;5051001;28;20385;-58
2023/06/14 07:47:31;;;;;;;16.98;7.90;;;;;;;21.71;39.26;101511.22;5049837;28;20047;-58
2023/06/14 07:49:56;;;;;;;17.75;7.78;;;;;;;21.83;39.45;101510.25;5050896;28;20021;-59
2023/06/14 07:52:21;;;;;;;17.20;8.05;;;;;;;21.97;39.16;101512.59;5050763;28;20108;-58
2023/06/14 07:54:47;;;;;;;15.80;8.13;;;;;;;22.05;38.91;101511.59;5050593;28;20033;-58
2023/06/14 07:57:12;;;;;;;17.75;7.72;;;;;;;22.10;38.68;101527.38;5050825;28;20064;-58
2023/06/14 07:59:38;;;;;;;18.52;7.85;;;;;;;22.12;38.24;101523.00;5050284;28;20065;-58
2023/06/14 08:02:03;;;;;;;18.80;8.15;;;;;;;22.17;38.05;101529.50;5050867;28;20056;-58
2023/06/14 08:04:29;;;;;;;17.15;7.80;;;;;;;22.17;37.81;101526.69;5050543;28;20043;-59
2023/06/14 08:06:54;;;;;;;17.23;7.90;;;;;;;22.26;37.95;101535.75;5050836;28;20025;-59
2023/06/14 08:09:20;;;;;;;18.48;8.48;;;;;;;22.18;38.00;101534.78;5053423;28;20032;-58
2023/06/14 08:11:45;;;;;;;18.10;7.78;;;;;;;22.21;37.55;101534.03;5054805;28;20078;-59
2023/06/14 08:14:11;;;;;;;16.67;7.75;;;;;;;22.33;37.54;101533.09;5054735;28;20032;-58
2023/06/14 08:16:37;;;;;;;16.23;7.50;;;;;;;22.43;37.21;101528.88;5054747;28;20098;-58
2023/06/14 08:19:02;;;;;;;16.65;7.80;;;;;;;22.51;37.16;101530.66;5054652;28;20039;-59
2023/06/14 08:21:28;;;;;;;18.08;7.63;;;;;;;22.43;37.25;101532.50;5054395;28;20053;-59
2023/06/14 08:23:54;;;;;;;13.80;7.30;;;;;;;22.57;37.51;101534.81;5054258;28;20036;-58
2023/06/14 08:26:20;;;;;;;15.38;7.90;;;;;;;22.64;37.41;101531.31;5053116;28;20361;-58
2023/06/14 08:28:46;;;;;;;18.52;7.97;;;;;;;22.66;37.78;101533.78;5054347;28;20331;-59
2023/06/14 08:31:11;;;;;;;17.75;7.97;;;;;;;22.76;37.27;101538.81;5054644;28;20074;-59
2023/06/14 08:33:36;;;;;;;18.85;7.90;;;;;;;22.78;37.02;101539.22;5054477;28;20083;-58
2023/06/14 08:36:02;;;;;;;16.52;7.78;;;;;;;22.89;36.88;101531.78;5054629;28;20064;-59
2023/06/14 08:38:27;;;;;;;17.10;7.53;;;;;;;22.98;37.04;101530.72;5053358;28;20036;-58
2023/06/14 08:40:56;;;;;;;15.43;7.20;;;;;;;23.05;36.12;101528.84;5054130;28;20544;-59
2023/06/14 08:43:21;;;;;;;13.48;7.10;;;;;;;23.05;35.71;101536.50;5055351;28;20045;-59
2023/06/14 08:45:48;;;;;;;14.57;7.43;;;;;;;23.05;36.24;101533.66;5055086;28;20075;-58
2023/06/14 08:48:17;;;;;;;18.30;7.95;;;;;;;22.99;35.97;101535.19;5052833;28;20043;-58
2023/06/14 08:50:45;;;;;;;15.45;6.88;;;;;;;23.19;35.72;101528.31;5054244;28;20111;-59
2023/06/14 08:53:19;;;;;;;15.27;6.43;;;;;;;23.33;33.94;101535.41;5053925;28;20041;-58
2023/06/14 08:55:45;;;;;;;21.67;6.90;;;;;;;23.43;32.75;101536.75;5053781;28;20025;-58
2023/06/14 08:58:14;;;;;;;15.48;6.75;;;;;;;23.39;32.20;101531.06;5053651;28;20043;-59
2023/06/14 09:00:41;;;;;;;11.88;6.38;;;;;;;23.43;31.91;101539.59;5053799;28;20067;-58
2023/06/14 09:03:12;;;;;;;13.32;6.28;;;;;;;23.34;31.28;101535.03;5053696;28;20048;-58
2023/06/14 09:05:38;;;;;;;11.90;6.28;;;;;;;23.48;31.59;101533.59;5053498;28;20036;-58
2023/06/14 09:08:05;;;;;;;12.50;5.95;;;;;;;23.50;30.72;101531.22;5053204;28;20104;-58
2023/06/14 09:10:33;;;;;;;8.52;5.78;;;;;;;23.65;29.99;101535.91;5053717;28;20365;-59
2023/06/14 09:13:00;;;;;;;10.23;5.88;;;;;;;23.75;29.95;101537.25;5053445;28;20118;-58
2023/06/14 09:15:25;;;;;;;10.40;5.68;;;;;;;23.85;30.77;101535.81;5053430;28;20087;-58
2023/06/14 09:17:51;;;;;;;9.15;5.60;;;;;;;23.91;29.60;101539.09;5053421;28;20033;-59
2023/06/14 09:20:18;;;;;;;10.23;5.70;;;;;;;23.93;29.01;101536.72;5051889;28;20530;-58
2023/06/14 09:22:44;;;;;;;12.00;5.68;;;;;;;23.98;29.69;101533.59;5053009;28;20059;-57
2023/06/14 09:25:10;;;;;;;10.43;5.55;;;;;;;24.16;29.36;101535.84;5053223;28;20196;-57
2023/06/14 09:27:39;;;;;;;8.07;5.20;;;;;;;24.18;28.62;101548.38;5053430;28;20436;-60
2023/06/14 09:30:08;;;;;;;11.18;5.68;;;;;;;24.09;29.79;101536.56;5053504;28;20033;-59
2023/06/14 09:32:36;;;;;;;11.63;5.78;;;;;;;24.28;30.26;101539.25;5052896;28;20385;-58
2023/06/14 09:35:02;;;;;;;11.05;5.45;;;;;;;24.44;29.26;101524.06;5044870;28;20025;-58
2023/06/14 09:37:32;;;;;;;9.25;5.47;;;;;;;24.54;29.35;101546.00;5035577;28;20662;-58
2023/06/14 09:39:58;;;;;;;10.90;5.40;;;;;;;24.59;29.16;101540.00;5043660;28;20041;-58
2023/06/14 09:42:25;;;;;;;12.80;5.70;;;;;;;24.53;28.51;101540.75;5052666;28;20083;-59
2023/06/14 09:44:52;;;;;;;11.30;5.50;;;;;;;24.30;29.22;101544.50;5053310;28;20036;-58
2023/06/14 09:47:18;;;;;;;9.93;5.85;;;;;;;24.48;29.17;101546.72;5051976;28;20032;-62
2023/06/14 09:49:44;;;;;;;11.85;5.75;;;;;;;24.59;29.39;101544.84;5053539;28;20029;-58
2023/06/14 09:52:13;;;;;;;10.77;5.65;;;;;;;24.37;29.44;101555.09;5053110;28;20136;-59
2023/06/14 09:54:42;;;;;;;15.40;6.60;;;;;;;24.38;29.22;101554.69;5052784;28;20066;-58
2023/06/14 09:57:11;;;;;;;12.60;5.90;;;;;;;24.51;28.52;101548.78;5052586;28;20025;-58
2023/06/14 09:59:41;;;;;;;11.75;5.80;;;;;;;24.66;29.12;101544.91;5052576;28;20040;-59
2023/06/14 10:02:18;;;;;;;9.98;5.78;;;;;;;24.60;29.10;101550.13;5052526;28;20039;-57
2023/06/14 10:04:50;;;;;;;14.57;6.20;;;;;;;24.73;29.29;101535.72;5052423;28;20067;-59
2023/06/14 10:07:19;;;;;;;11.55;6.03;;;;;;;24.64;29.09;101543.69;5052387;28;20021;-58
2023/06/14 10:09:49;;;;;;;13.68;7.00;;;;;;;24.62;29.29;101544.06;5052317;28;20041;-58
2023/06/14 10:12:20;;;;;;;10.32;5.80;;;;;;;24.69;29.47;101529.25;5052455;28;20495;-58
2023/06/14 10:14:48;;;;;;;12.20;6.20;;;;;;;24.79;29.84;101525.72;5051597;28;20104;-58
2023/06/14 10:17:21;;;;;;;9.40;5.63;;;;;;;25.03;29.11;101517.84;5062716;28;20043;-58
2023/06/14 10:19:55;;;;;;;12.15;6.20;;;;;;;25.25;28.58;101523.69;5072635;28;20103;-58
2023/06/14 10:22:33;;;;;;;14.88;5.70;;;;;;;25.49;28.57;101530.81;5071747;28;20094;-58
2023/06/14 10:24:59;;;;;;;12.40;5.70;;;;;;;25.48;27.47;101524.31;5071745;28;20161;-58
2023/06/14 10:27:25;;;;;;;11.48;5.85;;;;;;;25.47;28.03;101524.72;5071605;28;20151;-57
2023/06/14 10:29:53;;;;;;;11.48;5.88;;;;;;;25.57;28.13;101526.81;5071743;28;20032;-58
2023/06/14 10:32:20;;;;;;;15.88;5.97;;;;;;;25.57;28.54;101523.97;5071389;28;20056;-58
2023/06/14 10:34:46;;;;;;;11.30;5.85;;;;;;;25.60;27.97;101525.19;5071560;28;20541;-57
2023/06/14 10:37:13;;;;;;;12.95;5.90;;;;;;;25.54;28.25;101524.75;5071563;28;20482;-58
2023/06/14 10:39:42;;;;;;;11.13;6.18;;;;;;;25.16;27.95;101524.84;5071522;28;20495;-58
2023/06/14 10:42:08;;;;;;;10.77;5.95;;;;;;;25.21;28.64;101532.16;5071651;28;20033;-58
2023/06/14 10:44:45;;;;;;;9.98;6.32;;;;;;;24.98;28.15;101540.84;5071633;28;20101;-58
2023/06/14 10:47:39;;;;;;;9.45;5.90;;;;;;;24.85;28.90;101524.16;5070385;28;20032;-56
2023/06/14 10:50:05;;;;;;;;;;;;;;;24.92;29.69;101527.03;5071936;28;20040;-58
2023/06/14 10:52:35;;;;;;;10.82;5.43;;;;;;;24.95;29.66;101527.47;5055744;28;19916;-59
2023/06/14 10:55:22;;;;;;;8.77;5.55;;;;;;;25.14;29.31;101521.59;5051405;28;20025;-58
2023/06/14 10:57:58;;;;;;;11.95;5.90;;;;;;;25.35;29.20;101534.31;5048447;28;20044;-58
2023/06/14 11:00:26;;;;;;;12.88;5.90;;;;;;;25.02;28.07;101527.53;5031293;28;20038;-58
2023/06/14 11:02:56;;;;;;;13.00;5.60;;;;;;;25.07;29.16;101530.81;5031721;28;20028;-59
2023/06/14 11:05:26;;;;;;;10.25;5.80;;;;;;;25.17;28.61;101528.47;5031510;28;20030;-59
2023/06/14 11:08:17;;;;;;;11.57;5.60;;;;;;;25.19;28.72;101523.25;5031622;28;20113;-59
2023/06/14 11:10:45;;;;;;;11.85;6.10;;;;;;;25.16;28.89;101530.50;5031598;28;20741;-58
2023/06/14 11:13:11;;;;;;;8.77;5.68;;;;;;;25.32;29.08;101535.88;5031420;28;20102;-58
2023/06/14 11:15:37;;;;;;;8.38;5.60;;;;;;;25.31;28.62;101534.28;5031148;28;20476;-57